Time;durP1;ratioP1;P1;durP2;ratioP2;P2;SDS_P1;SDS_P2;PMS_P1;PMS_P2;Temp;Humidity;BMP_temperature;BMP_pressure;BME280_temperature;BME280_humidity;BME280_pressure;Samples;Min_cycle;Max_cycle;Signal;HPM_P1;HPM_P2
2021/04/18 00:00:26;;;;;;;1.75;0.63;;;;;;;7.87;46.24;99741.69;1980091;82;20299;-86
2021/04/18 00:03:28;;;;;;;1.46;0.70;;;;;;;7.84;48.13;99743.38;1978234;82;20173;-86
2021/04/18 00:06:30;;;;;;;2.40;0.80;;;;;;;7.82;49.04;99745.94;1990327;82;20439;-85
2021/04/18 00:09:32;;;;;;;1.01;0.60;;;;;;;7.83;49.45;99744.22;1981052;82;20144;-86
2021/04/18 00:15:44;;;;;;;2.53;0.70;;;;;;;7.73;49.85;99737.22;2022363;72;20437;-86
2021/04/18 00:18:46;;;;;;;1.41;0.95;;;;;;;7.71;49.62;99736.31;2027041;72;20366;-85
2021/04/18 00:21:48;;;;;;;1.11;0.71;;;;;;;7.72;48.64;99733.78;1986528;82;20346;-86
2021/04/18 00:24:50;;;;;;;1.81;0.68;;;;;;;7.76;47.62;99727.78;1987861;82;20159;-83
2021/04/18 00:27:52;;;;;;;1.71;0.86;;;;;;;7.78;47.74;99733.84;1978532;82;20157;-86
2021/04/18 00:30:54;;;;;;;3.09;0.96;;;;;;;7.77;47.96;99726.94;1979609;82;20135;-89
2021/04/18 00:33:56;;;;;;;1.38;0.88;;;;;;;7.75;47.86;99723.47;1983853;82;20266;-86
2021/04/18 00:37:04;;;;;;;0.75;0.64;;;;;;;7.76;47.35;99725.22;1978307;82;20132;-85
2021/04/18 00:40:13;;;;;;;1.17;0.70;;;;;;;7.79;47.49;99729.53;1982584;82;20247;-86
2021/04/18 00:43:15;;;;;;;2.69;0.75;;;;;;;7.78;48.11;99718.34;1976977;82;20139;-86
2021/04/18 00:46:17;;;;;;;1.42;0.80;;;;;;;7.77;49.37;99719.19;1994427;82;20171;-85
2021/04/18 00:49:19;;;;;;;1.30;0.70;;;;;;;7.74;50.09;99721.75;1976759;82;20321;-87
2021/04/18 00:52:21;;;;;;;1.70;0.77;;;;;;;7.73;50.92;99716.56;1980686;82;20160;-85
2021/04/18 00:58:48;;;;;;;0.71;0.60;;;;;;;7.63;52.92;99718.13;1983563;72;20164;-86
2021/04/18 01:01:53;;;;;;;1.04;0.66;;;;;;;7.58;53.20;99719.81;1974018;83;20363;-87
2021/04/18 01:04:55;;;;;;;1.10;0.70;;;;;;;7.50;54.53;99718.81;2078028;72;20408;-87
2021/04/18 01:07:56;;;;;;;1.59;0.70;;;;;;;7.47;55.01;99714.50;1979660;82;20228;-86
2021/04/18 01:10:58;;;;;;;2.75;0.66;;;;;;;7.45;55.36;99713.59;1976339;82;20301;-87
2021/04/18 01:14:00;;;;;;;0.54;0.52;;;;;;;7.41;55.95;99706.66;1980538;82;20437;-85
2021/04/18 01:17:02;;;;;;;0.84;0.60;;;;;;;7.39;56.14;99704.91;1982909;82;20299;-84
2021/04/18 01:20:08;;;;;;;1.42;0.73;;;;;;;7.35;56.41;99711.72;1975963;82;20268;-86
2021/04/18 01:23:10;;;;;;;3.24;0.73;;;;;;;7.32;56.87;99710.81;1980929;82;20356;-87
2021/04/18 01:26:12;;;;;;;1.35;0.70;;;;;;;7.30;57.04;99707.34;1976386;82;20179;-86
2021/04/18 01:29:14;;;;;;;1.30;0.82;;;;;;;7.26;57.70;99706.47;1983941;82;20147;-86
2021/04/18 01:32:21;;;;;;;1.00;0.70;;;;;;;7.23;57.22;99711.59;1974920;82;20362;-86
2021/04/18 01:35:23;;;;;;;3.75;0.86;;;;;;;7.21;57.73;99705.53;1978217;82;20325;-84
2021/04/18 01:38:25;;;;;;;1.70;1.00;;;;;;;7.15;56.85;99710.59;1987685;82;20294;-85
2021/04/18 01:41:27;;;;;;;1.48;0.99;;;;;;;7.17;57.39;99702.00;1980657;82;20301;-85
2021/04/18 01:47:40;;;;;;;1.23;1.08;;;;;;;7.17;57.86;99702.00;1996161;72;20388;-85
2021/04/18 01:54:23;;;;;;;2.14;1.00;;;;;;;7.13;58.33;99700.25;2024155;72;20214;-85
2021/04/18 01:57:44;;;;;;;1.88;0.96;;;;;;;7.12;59.33;99689.91;2012070;72;20309;-87
2021/04/18 02:00:46;;;;;;;2.79;1.10;;;;;;;7.05;59.55;99691.53;1984326;82;20157;-85
2021/04/18 02:03:48;;;;;;;3.14;1.20;;;;;;;7.04;58.54;99699.25;1979602;82;20147;-86
2021/04/18 02:06:50;;;;;;;2.16;1.04;;;;;;;7.03;57.67;99690.66;1976753;82;20339;-85
2021/04/18 02:09:52;;;;;;;2.86;1.00;;;;;;;7.06;57.04;99679.50;1983987;82;20127;-87
2021/04/18 02:12:54;;;;;;;4.10;1.04;;;;;;;7.06;57.42;99682.06;1979884;82;20201;-85
2021/04/18 02:15:55;;;;;;;2.86;0.84;;;;;;;7.07;58.27;99684.66;1981056;82;20341;-85
2021/04/18 02:18:57;;;;;;;3.76;0.90;;;;;;;7.05;59.56;99685.50;1979515;82;20178;-86
2021/04/18 02:21:59;;;;;;;5.38;1.21;;;;;;;7.06;60.80;99682.06;1981124;82;20305;-85
2021/04/18 02:25:03;;;;;;;2.66;1.30;;;;;;;7.02;60.87;99677.72;1982825;82;20403;-83
2021/04/18 02:28:05;;;;;;;4.43;1.42;;;;;;;7.01;60.70;99682.00;1982924;82;20353;-86
2021/04/18 02:31:07;;;;;;;1.80;1.27;;;;;;;7.01;60.95;99684.59;1983141;82;20327;-86
2021/04/18 02:34:09;;;;;;;3.63;1.55;;;;;;;7.01;60.28;99678.56;1978641;82;20175;-85
2021/04/18 02:37:11;;;;;;;1.86;1.14;;;;;;;6.99;60.81;99675.94;1977635;82;20331;-85
2021/04/18 02:40:13;;;;;;;2.15;1.41;;;;;;;6.98;61.03;99680.22;1979716;82;20321;-84
2021/04/18 02:43:15;;;;;;;2.10;1.25;;;;;;;6.94;61.49;99673.28;1982707;82;20347;-83
2021/04/18 02:46:17;;;;;;;2.80;1.65;;;;;;;6.94;61.93;99690.50;1975748;82;20365;-85
2021/04/18 02:49:19;;;;;;;2.97;1.20;;;;;;;6.86;62.22;99680.06;1983739;82;20302;-86
2021/04/18 02:52:21;;;;;;;2.96;1.17;;;;;;;6.86;62.85;99684.38;1984261;82;20303;-87
2021/04/18 02:55:23;;;;;;;3.79;1.44;;;;;;;6.84;63.29;99680.91;1987391;82;20329;-84
2021/04/18 02:58:28;;;;;;;2.66;1.20;;;;;;;6.84;63.93;99681.75;2141926;72;20398;-87
2021/04/18 03:01:30;;;;;;;2.10;1.11;;;;;;;6.84;62.11;99681.75;1983030;82;20329;-85
2021/04/18 03:04:32;;;;;;;2.36;1.21;;;;;;;6.83;62.63;99679.16;1980702;82;20487;-84
2021/04/18 03:07:34;;;;;;;4.10;1.33;;;;;;;6.83;62.41;99690.34;1978441;82;20329;-86
2021/04/18 03:10:36;;;;;;;2.81;1.40;;;;;;;6.82;61.75;99688.63;1978727;82;20286;-88
2021/04/18 03:20:18;;;;;;;3.96;1.42;;;;;;;6.85;61.25;99677.47;2014626;72;20388;-87
2021/04/18 03:30:55;;;;;;;1.91;1.23;;;;;;;6.78;61.95;99680.78;2018322;72;20345;-88
2021/04/18 03:33:57;;;;;;;1.92;1.10;;;;;;;6.80;62.64;99684.25;1978425;82;20431;-88
2021/04/18 03:36:59;;;;;;;2.31;1.38;;;;;;;6.77;62.79;99679.91;1982870;82;20290;-85
2021/04/18 03:40:01;;;;;;;2.24;1.20;;;;;;;6.76;62.85;99674.72;1985399;82;20305;-85
2021/04/18 03:43:03;;;;;;;2.16;1.39;;;;;;;6.76;62.86;99669.56;1979153;82;20337;-88
2021/04/18 03:46:04;;;;;;;1.65;1.08;;;;;;;6.77;63.14;99666.13;1976878;82;20560;-88
2021/04/18 03:49:06;;;;;;;2.38;1.24;;;;;;;6.76;63.66;99669.56;1979909;82;20374;-86
2021/04/18 03:52:27;;;;;;;2.51;1.19;;;;;;;6.74;64.42;99668.69;2006586;72;20409;-88
2021/04/18 03:55:29;;;;;;;4.22;1.40;;;;;;;6.75;64.55;99680.75;1983468;82;20309;-88
2021/04/18 03:58:31;;;;;;;2.44;1.27;;;;;;;6.74;64.02;99682.44;1979428;82;20302;-88
2021/04/18 04:08:13;;;;;;;2.64;1.50;;;;;;;6.64;62.75;99675.41;2087111;72;20314;-85
2021/04/18 04:11:15;;;;;;;2.45;1.56;;;;;;;6.66;63.33;99677.19;1982968;82;20394;-86
2021/04/18 04:14:17;;;;;;;3.08;1.36;;;;;;;6.69;64.08;99681.53;1980637;82;20346;-86
2021/04/18 04:17:19;;;;;;;2.65;1.34;;;;;;;6.67;64.33;99683.22;1985221;82;20304;-87
2021/04/18 04:20:21;;;;;;;3.81;1.60;;;;;;;6.67;63.46;99683.22;1979660;82;20325;-86
2021/04/18 04:23:23;;;;;;;1.59;1.15;;;;;;;6.67;63.31;99675.47;1980725;82;20307;-85
2021/04/18 04:26:25;;;;;;;4.05;1.54;;;;;;;6.68;63.45;99677.22;1978437;82;20364;-86
2021/04/18 04:29:27;;;;;;;1.80;1.30;;;;;;;6.67;63.11;99675.47;1977838;82;20487;-84
2021/04/18 04:32:30;;;;;;;2.96;1.56;;;;;;;6.68;62.97;99673.75;1974751;82;20333;-87
2021/04/18 04:35:32;;;;;;;3.88;1.54;;;;;;;6.70;62.99;99677.22;1980303;82;20434;-87
2021/04/18 04:38:35;;;;;;;2.84;1.58;;;;;;;6.70;62.77;99680.69;1983235;82;20309;-87
2021/04/18 04:41:36;;;;;;;2.40;1.40;;;;;;;6.72;62.68;99673.81;1977951;82;20333;-86
2021/04/18 04:44:42;;;;;;;4.01;1.30;;;;;;;6.71;62.96;99679.81;2033256;72;20367;-86
2021/04/18 04:47:44;;;;;;;3.04;1.73;;;;;;;6.71;63.62;99681.53;1981976;82;20347;-85
2021/04/18 04:50:45;;;;;;;3.39;1.60;;;;;;;6.70;63.69;99682.38;1978589;82;20381;-87
2021/04/18 04:53:47;;;;;;;1.52;1.10;;;;;;;6.70;63.81;99684.97;1978223;82;20381;-85
2021/04/18 04:56:49;;;;;;;3.60;1.41;;;;;;;6.69;63.80;99683.22;1978022;82;20309;-86
2021/04/18 04:59:50;;;;;;;3.06;1.65;;;;;;;6.70;63.71;99690.13;1979015;82;20354;-87
2021/04/18 05:02:52;;;;;;;3.40;1.51;;;;;;;6.69;62.34;99685.81;1978386;82;20358;-84
2021/04/18 05:05:55;;;;;;;1.45;1.30;;;;;;;6.72;62.08;99689.31;1980793;82;20309;-85
2021/04/18 05:08:57;;;;;;;2.90;1.36;;;;;;;6.75;62.35;99691.94;2053633;72;20337;-88
2021/04/18 05:12:00;;;;;;;2.06;1.50;;;;;;;6.77;62.24;99690.22;1980629;83;20315;-85
2021/04/18 05:15:08;;;;;;;2.45;1.27;;;;;;;6.78;63.58;99693.69;2090896;72;20387;-85
2021/04/18 05:18:09;;;;;;;4.71;1.58;;;;;;;6.81;63.13;99693.72;1976602;83;20318;-84
2021/04/18 05:21:14;;;;;;;2.79;1.65;;;;;;;6.83;62.86;99695.50;1976206;83;20358;-85
2021/04/18 05:24:15;;;;;;;3.24;1.41;;;;;;;6.81;62.19;99692.00;1972171;83;20323;-83
2021/04/18 05:27:18;;;;;;;5.10;1.54;;;;;;;6.85;61.89;99687.78;1971841;83;20305;-88
2021/04/18 05:30:21;;;;;;;3.59;1.80;;;;;;;6.91;61.17;99691.31;1976894;83;20319;-88
2021/04/18 05:40:58;;;;;;;3.74;2.13;;;;;;;7.08;60.14;99703.63;2012415;72;20322;-83
2021/04/18 05:44:01;;;;;;;5.24;1.34;;;;;;;7.09;61.45;99701.06;1974991;83;20331;-85
2021/04/18 05:47:03;;;;;;;2.78;1.64;;;;;;;7.10;62.60;99700.19;1981529;83;20320;-84
2021/04/18 05:50:06;;;;;;;2.97;1.44;;;;;;;7.16;62.26;99704.56;1972078;83;20448;-84
2021/04/18 05:53:08;;;;;;;2.90;1.66;;;;;;;7.22;60.62;99700.38;1971911;83;21143;-86
2021/04/18 05:56:09;;;;;;;4.10;1.60;;;;;;;7.35;59.58;99695.38;1973136;83;20352;-84
2021/04/18 05:59:11;;;;;;;3.56;1.60;;;;;;;7.49;59.08;99697.28;1973104;83;20466;-86
2021/04/18 06:02:13;;;;;;;3.31;1.36;;;;;;;7.64;58.54;99709.53;1971164;83;20354;-86
2021/04/18 06:05:15;;;;;;;2.91;1.94;;;;;;;7.70;57.25;99704.44;1974489;83;20387;-84
2021/04/18 06:08:18;;;;;;;1.66;1.41;;;;;;;7.76;56.91;99714.00;1971659;83;20362;-84
2021/04/18 06:11:20;;;;;;;1.80;1.40;;;;;;;7.87;56.64;99707.22;1978594;83;20358;-86
2021/04/18 06:14:22;;;;;;;2.75;1.70;;;;;;;7.91;55.87;99708.16;1973486;83;20292;-87
2021/04/18 06:20:34;;;;;;;3.30;1.60;;;;;;;8.02;56.47;99707.41;2069189;72;20605;-86
2021/04/18 06:24:08;;;;;;;3.91;1.83;;;;;;;8.13;57.26;99704.94;2014383;72;20220;31
2021/04/18 06:27:10;;;;;;;4.06;1.73;;;;;;;8.19;55.03;99708.44;1955646;83;20181;-85
2021/04/18 06:30:13;;;;;;;2.25;1.77;;;;;;;8.29;55.11;99706.81;1957918;83;20334;-85
2021/04/18 06:33:15;;;;;;;3.17;1.61;;;;;;;8.46;55.37;99710.47;1958199;83;20262;-86
2021/04/18 06:36:17;;;;;;;1.89;1.73;;;;;;;8.59;55.18;99718.31;1964209;83;20212;-83
2021/04/18 06:39:19;;;;;;;2.16;1.52;;;;;;;8.73;54.90;99711.56;1961300;83;20190;-84
2021/04/18 06:42:23;;;;;;;4.57;1.79;;;;;;;8.77;54.15;99709.00;1960928;83;20177;-83
2021/04/18 06:45:25;;;;;;;4.44;1.71;;;;;;;8.90;53.43;99722.91;1951754;83;20228;-82
2021/04/18 06:48:27;;;;;;;3.14;1.79;;;;;;;8.91;53.00;99716.88;1957098;83;20294;-84
2021/04/18 06:51:29;;;;;;;5.38;2.13;;;;;;;9.02;53.67;99716.97;1957980;83;20319;-79
2021/04/18 06:54:31;;;;;;;3.75;1.85;;;;;;;9.07;52.84;99723.03;1952581;83;20205;-81
2021/04/18 06:57:37;;;;;;;2.38;1.90;;;;;;;9.04;52.46;99720.44;1947216;83;20185;-79
2021/04/18 07:00:38;;;;;;;3.15;1.94;;;;;;;9.10;52.45;99717.88;1945033;83;20177;-79
2021/04/18 07:03:41;;;;;;;5.65;1.95;;;;;;;9.08;51.53;99722.19;1959183;83;20344;-85
2021/04/18 07:06:46;;;;;;;4.05;1.99;;;;;;;9.17;52.56;99719.66;1952731;83;20725;-85
2021/04/18 07:09:48;;;;;;;4.78;2.19;;;;;;;9.33;52.06;99725.78;1959563;83;20203;-80
2021/04/18 07:12:50;;;;;;;3.64;2.06;;;;;;;9.50;52.13;99724.16;1955539;83;20540;-82
2021/04/18 07:15:51;;;;;;;6.30;2.86;;;;;;;9.64;51.25;99722.50;1955073;83;20189;-82
2021/04/18 07:18:55;;;;;;;3.81;2.64;;;;;;;9.66;50.35;99722.50;1947538;83;20214;-75
2021/04/18 07:21:57;;;;;;;4.69;2.71;;;;;;;9.73;49.51;99723.41;1946638;83;20808;-76
2021/04/18 07:24:59;;;;;;;5.66;2.88;;;;;;;9.82;49.74;99723.44;1950205;83;20192;-82
2021/04/18 07:28:01;;;;;;;6.70;2.84;;;;;;;9.99;49.86;99716.59;1948411;83;20181;-78
2021/04/18 07:31:03;;;;;;;3.90;2.56;;;;;;;10.12;49.42;99717.50;1946651;83;20214;-79
2021/04/18 07:34:12;;;;;;;3.45;2.53;;;;;;;10.33;49.12;99712.38;1955395;83;20707;-80
2021/04/18 07:37:17;;;;;;;3.49;3.05;;;;;;;10.64;49.01;99715.88;1954108;83;20181;-77
2021/04/18 07:40:30;;;;;;;4.45;2.99;;;;;;;10.78;47.20;99711.56;1953192;83;20715;-81
2021/04/18 07:43:32;;;;;;;6.29;3.09;;;;;;;10.80;46.58;99701.16;1953812;83;20211;-80
2021/04/18 07:46:34;;;;;;;3.88;3.13;;;;;;;10.84;46.47;99713.28;1957072;83;20177;-85
2021/04/18 07:49:36;;;;;;;7.55;3.79;;;;;;;11.01;46.98;99706.34;1956001;83;21111;-81
2021/04/18 07:52:44;;;;;;;6.01;3.31;;;;;;;11.19;45.90;99705.44;1948525;83;20658;-73
2021/04/18 07:55:46;;;;;;;4.40;3.56;;;;;;;11.44;46.42;99709.72;1952174;83;20216;-80
2021/04/18 07:58:47;;;;;;;5.54;3.40;;;;;;;11.79;46.51;99706.16;1955384;83;20200;-82
2021/04/18 08:01:49;;;;;;;6.04;3.49;;;;;;;11.88;44.99;99705.25;1952446;83;20185;-82
2021/04/18 08:04:56;;;;;;;7.55;3.94;;;;;;;11.77;44.88;99707.88;1953704;83;20205;-83
2021/04/18 08:08:20;;;;;;;7.06;4.40;;;;;;;11.78;44.77;99709.59;1948007;83;20189;-80
2021/04/18 08:11:24;;;;;;;4.36;3.19;;;;;;;12.48;45.29;99711.84;1950003;83;20199;-80
2021/04/18 08:14:25;;;;;;;4.89;3.67;;;;;;;13.00;43.15;99703.59;1949670;83;20224;-81
2021/04/18 08:17:27;;;;;;;6.30;4.39;;;;;;;13.39;42.90;99702.38;1948402;83;21224;-76
2021/04/18 08:20:35;;;;;;;6.03;4.05;;;;;;;14.00;42.38;99700.75;1946834;83;20222;-82
2021/04/18 08:23:39;;;;;;;7.29;4.28;;;;;;;14.21;41.12;99700.50;1952949;83;20207;-80
2021/04/18 08:30:26;;;;;;;8.79;4.29;;;;;;;14.78;40.73;99701.38;2071050;72;20195;-85
2021/04/18 08:40:34;;;;;;;5.00;4.41;;;;;;;16.18;38.30;99700.44;1968784;72;20281;-84
2021/04/18 08:43:45;;;;;;;6.80;5.04;;;;;;;16.12;37.50;99692.69;1992271;72;20191;-84
2021/04/18 08:46:56;;;;;;;5.12;4.19;;;;;;;16.23;36.32;99692.47;1976753;72;20175;-84
2021/04/18 08:56:49;;;;;;;5.59;4.31;;;;;;;15.22;39.05;99699.72;2013595;72;20207;-86
2021/04/18 08:59:56;;;;;;;6.05;5.10;;;;;;;14.86;39.04;99709.06;1971620;83;20184;-83
2021/04/18 09:02:59;;;;;;;6.04;4.89;;;;;;;14.51;39.28;99713.13;1970874;83;20196;-83
2021/04/18 09:06:16;;;;;;;5.25;4.13;;;;;;;14.32;39.75;99702.94;1969024;83;20187;-83
2021/04/18 09:09:42;;;;;;;8.01;4.32;;;;;;;14.24;40.55;99705.66;1972473;72;20724;-83
2021/04/18 09:12:48;;;;;;;6.56;4.15;;;;;;;14.15;41.26;99724.06;2018356;72;20227;-76
2021/04/18 09:15:50;;;;;;;5.01;4.28;;;;;;;13.63;40.80;99713.41;1968837;83;20195;-83
2021/04/18 09:18:53;;;;;;;6.53;3.94;;;;;;;13.49;42.20;99709.22;1964233;83;20192;-82
2021/04/18 09:22:08;;;;;;;4.56;4.16;;;;;;;13.20;43.01;99712.13;1962972;83;20223;-79
2021/04/18 09:25:14;;;;;;;4.81;4.38;;;;;;;13.03;43.60;99714.00;1961235;83;20192;-82
2021/04/18 09:28:16;;;;;;;5.25;3.75;;;;;;;12.88;43.96;99732.38;1964924;83;20195;-83
2021/04/18 09:31:17;;;;;;;7.60;4.29;;;;;;;12.52;45.26;99736.13;1969012;83;20205;-84
2021/04/18 09:34:20;;;;;;;6.35;5.09;;;;;;;12.30;45.82;99731.06;1969882;83;20213;-82
2021/04/18 09:37:29;;;;;;;5.19;4.61;;;;;;;11.95;46.82;99733.84;1967625;83;20197;-83
2021/04/18 09:40:33;;;;;;;6.30;4.24;;;;;;;11.64;48.37;99745.19;1968579;83;20219;-83
2021/04/18 09:43:34;;;;;;;7.03;4.54;;;;;;;11.39;49.66;99734.00;1967573;83;20215;-83
2021/04/18 09:46:43;;;;;;;6.13;4.05;;;;;;;11.31;50.21;99736.63;2002480;72;20309;-74
2021/04/18 09:49:48;;;;;;;5.63;4.02;;;;;;;11.27;51.04;99741.81;1955083;83;20183;-74
2021/04/18 09:52:51;;;;;;;5.74;3.92;;;;;;;11.21;51.23;99737.50;1954294;83;20298;-73
2021/04/18 09:56:04;;;;;;;5.69;4.43;;;;;;;11.24;51.33;99741.81;1955589;83;20315;-74
2021/04/18 09:59:16;;;;;;;7.30;4.94;;;;;;;11.24;50.99;99737.50;1950312;83;20194;-74
2021/04/18 10:02:18;;;;;;;6.30;4.35;;;;;;;11.17;51.27;99744.44;1949358;80;23520;-73
2021/04/18 10:05:19;;;;;;;7.44;4.72;;;;;;;11.02;51.23;99739.25;1950729;83;21101;-74
2021/04/18 10:08:28;;;;;;;6.14;4.71;;;;;;;10.92;51.06;99740.09;1950427;83;20245;-74
2021/04/18 10:11:30;;;;;;;;;;;;;;;10.86;51.60;99738.38;1951184;83;20181;-74
2021/04/18 10:14:32;;;;;;;7.50;4.83;;;;;;;10.75;51.79;99742.69;1951100;83;20057;-73
2021/04/18 10:17:35;;;;;;;6.68;4.95;;;;;;;10.80;53.12;99743.59;1949838;80;25038;-74
2021/04/18 10:20:37;;;;;;;6.34;4.57;;;;;;;10.81;53.54;99747.91;1953706;83;20210;-74
2021/04/18 10:23:39;;;;;;;5.64;4.36;;;;;;;10.76;54.27;99747.03;1950120;83;20181;-75
2021/04/18 10:26:41;;;;;;;8.49;4.36;;;;;;;10.72;54.55;99742.72;1950783;83;20201;-73
2021/04/18 10:29:43;;;;;;;7.39;4.74;;;;;;;10.72;55.23;99745.31;1950272;83;20276;-76
2021/04/18 10:32:48;;;;;;;6.55;4.36;;;;;;;10.61;55.22;99749.66;1949874;81;20936;-73
2021/04/18 10:35:54;;;;;;;6.07;5.34;;;;;;;10.60;55.37;99747.91;1950321;83;20670;-73
2021/04/18 10:38:56;;;;;;;6.31;4.63;;;;;;;10.49;56.11;99744.41;1950270;83;20312;-75
2021/04/18 10:41:58;;;;;;;6.06;5.09;;;;;;;10.46;56.52;99744.41;1949927;83;20172;-73
2021/04/18 10:44:59;;;;;;;6.91;5.00;;;;;;;10.44;56.69;99744.41;1950258;83;20237;-73
2021/04/18 10:48:01;;;;;;;7.93;4.79;;;;;;;10.40;56.61;99736.59;1945040;81;21863;-74
2021/04/18 10:51:04;;;;;;;6.45;5.16;;;;;;;10.27;55.54;99731.41;1945404;83;20223;-72
2021/04/18 10:54:06;;;;;;;8.56;5.20;;;;;;;10.34;56.30;99732.28;1945326;83;20192;-72
2021/04/18 10:57:08;;;;;;;6.01;4.75;;;;;;;10.35;57.09;99721.03;1945383;83;20243;-71
2021/04/18 11:00:10;;;;;;;7.70;5.38;;;;;;;10.34;56.78;99726.22;1944756;83;20654;-71
2021/04/18 11:03:12;;;;;;;5.28;4.71;;;;;;;10.39;57.13;99727.09;1950422;80;20557;-72
2021/04/18 11:06:14;;;;;;;6.29;5.14;;;;;;;10.45;57.84;99727.97;1950151;83;20204;-71
2021/04/18 11:09:16;;;;;;;9.29;5.54;;;;;;;10.57;57.75;99725.38;1949766;83;20189;-73
2021/04/18 11:12:19;;;;;;;6.51;4.79;;;;;;;10.61;57.24;99720.22;1950705;83;20265;-72
2021/04/18 11:15:21;;;;;;;6.95;4.94;;;;;;;10.62;56.21;99720.22;1951145;80;37412;-72
2021/04/18 11:18:23;;;;;;;8.10;5.44;;;;;;;10.70;56.93;99715.00;1952432;83;20177;-73
2021/04/18 11:21:25;;;;;;;9.14;5.04;;;;;;;10.85;56.56;99715.88;1951502;83;20278;-74
2021/04/18 11:24:27;;;;;;;6.38;5.25;;;;;;;11.05;55.92;99713.25;1951843;83;20314;-72
2021/04/18 11:27:28;;;;;;;7.45;5.29;;;;;;;11.19;54.70;99718.44;1951794;83;21041;-71
2021/04/18 11:30:30;;;;;;;8.44;5.22;;;;;;;11.09;54.32;99714.97;1950746;81;23415;-72
2021/04/18 11:33:32;;;;;;;6.94;5.31;;;;;;;11.15;55.46;99715.00;1950714;83;20232;-72
2021/04/18 11:36:35;;;;;;;6.00;4.64;;;;;;;11.25;56.09;99720.16;1948683;83;20222;-71
2021/04/18 11:39:37;;;;;;;12.25;4.81;;;;;;;11.34;55.46;99715.81;1950342;83;20228;-72
2021/04/18 11:42:38;;;;;;;8.04;5.09;;;;;;;11.40;55.77;99713.19;1950372;83;20211;-71
2021/04/18 11:45:41;;;;;;;5.99;5.40;;;;;;;11.57;55.40;99713.16;1949203;80;22736;-72
2021/04/18 11:48:42;;;;;;;7.19;4.61;;;;;;;11.69;54.75;99709.66;1949748;83;20218;-72
2021/04/18 11:51:46;;;;;;;6.63;4.26;;;;;;;11.64;54.55;99716.59;1950480;83;20305;-72
2021/04/18 11:54:48;;;;;;;8.15;5.28;;;;;;;11.70;56.11;99707.03;1950275;83;20294;-73
2021/04/18 11:57:51;;;;;;;6.28;5.03;;;;;;;11.79;55.91;99713.97;1950476;83;20249;-71
2021/04/18 12:00:52;;;;;;;5.72;5.15;;;;;;;11.72;56.27;99707.91;1949443;80;20942;-73
2021/04/18 12:03:55;;;;;;;6.16;5.55;;;;;;;11.67;56.80;99712.25;1950520;83;20188;-71
2021/04/18 12:06:57;;;;;;;8.34;5.53;;;;;;;11.62;57.66;99715.72;1949901;83;20210;-72
2021/04/18 12:09:58;;;;;;;6.99;5.51;;;;;;;11.48;57.69;99710.56;1950287;83;20200;-71
2021/04/18 12:13:00;;;;;;;8.91;5.82;;;;;;;11.40;57.90;99714.94;1949771;83;20340;-71
2021/04/18 12:16:02;;;;;;;6.11;4.70;;;;;;;11.33;59.06;99711.50;1949193;83;22987;-71
2021/04/18 12:19:04;;;;;;;7.01;4.80;;;;;;;11.23;57.95;99717.56;1950134;83;20222;-70
2021/04/18 12:22:05;;;;;;;6.05;5.03;;;;;;;11.18;57.39;99709.78;1950051;83;20188;-70
2021/04/18 12:25:09;;;;;;;7.21;4.85;;;;;;;11.13;57.59;99716.72;1949849;83;20273;-71
2021/04/18 12:28:11;;;;;;;7.29;4.74;;;;;;;11.04;58.19;99719.31;1950499;83;20180;-71
2021/04/18 12:31:13;;;;;;;7.41;4.70;;;;;;;11.03;58.62;99720.19;1949484;80;21423;-71
2021/04/18 12:34:15;;;;;;;6.84;4.64;;;;;;;11.02;59.93;99718.47;1950223;83;20196;-71
2021/04/18 12:37:17;;;;;;;5.60;4.44;;;;;;;11.00;60.25;99720.22;1949879;83;20236;-71
2021/04/18 12:40:19;;;;;;;6.69;4.78;;;;;;;11.00;60.83;99721.94;1950428;83;20188;-72
2021/04/18 12:43:20;;;;;;;6.82;5.21;;;;;;;10.98;61.35;99719.34;1950250;83;20204;-71
2021/04/18 12:46:23;;;;;;;7.84;4.99;;;;;;;10.97;62.00;99719.34;1949309;81;20714;-71
2021/04/18 12:49:24;;;;;;;5.99;5.03;;;;;;;10.92;62.80;99719.31;1949928;83;20208;-71
2021/04/18 12:52:26;;;;;;;9.86;5.44;;;;;;;10.93;62.96;99721.06;1953074;83;20323;-71
2021/04/18 12:55:28;;;;;;;8.93;5.22;;;;;;;10.91;61.61;99720.19;1955544;83;20172;-73
2021/04/18 12:58:30;;;;;;;7.61;5.15;;;;;;;10.81;62.44;99718.47;1955384;83;20250;-71
2021/04/18 13:01:31;;;;;;;8.07;5.01;;;;;;;10.84;63.03;99724.53;1953803;80;20813;-70
2021/04/18 13:04:33;;;;;;;9.80;5.40;;;;;;;10.96;63.24;99722.81;1954941;83;21337;-70
2021/04/18 13:07:36;;;;;;;7.75;4.76;;;;;;;11.05;63.51;99715.84;1954924;83;20217;-70
2021/04/18 13:10:38;;;;;;;8.26;4.55;;;;;;;11.22;63.73;99710.63;1954685;83;20215;-70
2021/04/18 13:13:40;;;;;;;5.16;4.69;;;;;;;11.24;63.80;99714.09;1954927;83;20269;-70
2021/04/18 13:16:43;;;;;;;5.44;4.09;;;;;;;11.28;62.63;99715.81;1953938;80;20613;-71
2021/04/18 13:19:45;;;;;;;5.79;4.09;;;;;;;11.18;62.19;99711.53;1954514;83;20656;-70
2021/04/18 13:22:47;;;;;;;5.68;3.61;;;;;;;11.20;63.23;99722.78;1955130;83;20195;-70
2021/04/18 13:25:49;;;;;;;4.76;3.86;;;;;;;11.11;61.86;99720.16;1954662;83;20231;-70
2021/04/18 13:28:51;;;;;;;3.76;3.47;;;;;;;11.21;63.46;99716.72;1955233;83;20266;-71
2021/04/18 13:31:53;;;;;;;5.16;4.06;;;;;;;11.13;62.23;99713.22;1953921;80;24193;-71
2021/04/18 13:34:55;;;;;;;5.55;4.38;;;;;;;11.07;62.01;99713.25;1955930;83;20237;-71
2021/04/18 13:37:57;;;;;;;4.96;3.96;;;;;;;11.05;63.09;99717.59;1956564;83;20215;-71
2021/04/18 13:40:59;;;;;;;5.63;4.06;;;;;;;10.97;63.37;99711.56;1956291;83;21100;-71
2021/04/18 13:44:00;;;;;;;4.66;4.03;;;;;;;10.82;63.67;99715.03;1956643;83;20194;-72
2021/04/18 13:47:02;;;;;;;4.54;3.86;;;;;;;10.71;64.46;99712.41;1955135;80;20501;-71
2021/04/18 13:50:05;;;;;;;4.59;4.16;;;;;;;10.63;64.53;99715.88;1955951;83;20245;-71
2021/04/18 13:53:10;;;;;;;5.49;4.49;;;;;;;10.61;64.63;99713.28;1955428;83;20695;-72
2021/04/18 13:56:12;;;;;;;6.10;4.26;;;;;;;10.56;66.19;99728.84;1955265;83;20655;-71
2021/04/18 13:59:14;;;;;;;6.89;4.80;;;;;;;10.53;66.23;99728.84;1956279;83;20245;-72
2021/04/18 14:02:16;;;;;;;6.40;4.86;;;;;;;10.42;66.45;99720.19;1953854;80;22476;-72
2021/04/18 14:05:18;;;;;;;6.20;4.44;;;;;;;10.33;67.33;99729.69;1954783;83;20215;-72
2021/04/18 14:08:22;;;;;;;5.41;4.84;;;;;;;10.26;67.27;99721.91;1955891;83;20200;-71
2021/04/18 14:11:24;;;;;;;5.88;4.34;;;;;;;10.20;67.61;99719.22;1955048;83;20204;-71
2021/04/18 14:14:26;;;;;;;6.39;4.70;;;;;;;10.01;67.05;99717.44;1955734;83;20787;-72
2021/04/18 14:17:28;;;;;;;7.39;4.54;;;;;;;9.94;68.04;99708.78;1953733;80;24240;-73
2021/04/18 14:20:30;;;;;;;4.79;4.07;;;;;;;9.80;68.05;99694.03;1955461;83;20191;-72
2021/04/18 14:23:35;;;;;;;9.20;5.09;;;;;;;9.75;68.66;99693.16;1955528;82;20239;-73
2021/04/18 14:26:37;;;;;;;5.93;4.13;;;;;;;9.63;71.72;99691.38;1954818;83;20730;-73
2021/04/18 14:29:39;;;;;;;5.56;4.00;;;;;;;9.54;72.90;99684.44;1955503;83;20807;-72
2021/04/18 14:32:45;;;;;;;4.79;4.18;;;;;;;9.50;73.59;99681.81;1954234;80;20250;-72
2021/04/18 14:35:47;;;;;;;7.85;5.45;;;;;;;9.43;74.18;99680.06;1955716;83;20231;-72
2021/04/18 14:38:49;;;;;;;7.61;4.74;;;;;;;9.40;74.49;99683.50;1955689;83;20213;-71
2021/04/18 14:41:55;;;;;;;7.66;4.82;;;;;;;9.43;75.21;99674.88;1954768;83;20324;-72
2021/04/18 14:44:57;;;;;;;7.05;5.00;;;;;;;9.36;75.84;99677.44;1958241;82;20221;-72
2021/04/18 14:47:58;;;;;;;7.43;4.99;;;;;;;9.37;76.03;99676.59;1954325;80;21286;-72
2021/04/18 14:51:01;;;;;;;6.22;4.78;;;;;;;9.47;76.72;99669.72;1955398;83;20219;-72
2021/04/18 14:54:03;;;;;;;5.91;4.65;;;;;;;9.59;77.38;99666.31;1954782;83;20176;-73
2021/04/18 14:57:05;;;;;;;6.54;4.50;;;;;;;9.61;77.42;99677.56;1955054;83;20184;-73
2021/04/18 15:00:08;;;;;;;6.11;4.89;;;;;;;9.61;77.37;99672.38;1954755;83;20259;-72
2021/04/18 15:03:10;;;;;;;6.15;4.49;;;;;;;9.61;77.22;99669.78;1955760;80;21150;-72
2021/04/18 15:06:16;;;;;;;6.53;4.63;;;;;;;9.62;77.07;99667.19;1955056;83;20681;-72
2021/04/18 15:09:17;;;;;;;6.21;5.24;;;;;;;9.64;77.31;99667.19;1955585;83;20320;-72
2021/04/18 15:12:19;;;;;;;8.34;5.26;;;;;;;9.63;77.34;99671.50;1956517;83;20209;-72
2021/04/18 15:15:22;;;;;;;5.35;4.81;;;;;;;9.67;77.45;99673.25;1956000;80;21774;-73
2021/04/18 15:18:24;;;;;;;8.51;5.30;;;;;;;9.64;77.29;99667.19;1955876;83;20202;-73
2021/04/18 15:21:25;;;;;;;5.70;4.96;;;;;;;9.60;77.82;99665.44;1956540;83;20334;-74
2021/04/18 15:24:27;;;;;;;8.14;5.94;;;;;;;9.56;77.11;99664.56;1957355;83;20700;-73
2021/04/18 15:27:29;;;;;;;8.24;5.46;;;;;;;9.55;76.99;99667.16;1955390;83;20271;-72
2021/04/18 15:30:31;;;;;;;7.30;5.43;;;;;;;9.51;77.16;99663.66;1954070;80;20540;-73